Time;durP1;ratioP1;P1;durP2;ratioP2;P2;SDS_P1;SDS_P2;PMS_P1;PMS_P2;Temp;Humidity;BMP_temperature;BMP_pressure;BME280_temperature;BME280_humidity;BME280_pressure;Samples;Min_cycle;Max_cycle;Signal;HPM_P1;HPM_P2
2023/08/27 00:01:27;;;;;;;4.85;1.58;;;11.80;99.90;;;;;;5037971;28;20037;-81
2023/08/27 00:03:55;;;;;;;11.15;1.80;;;11.80;99.90;;;;;;5056091;28;20514;-81
2023/08/27 00:06:23;;;;;;;6.20;1.42;;;11.70;99.90;;;;;;5069483;28;20478;-80
2023/08/27 00:08:51;;;;;;;3.78;1.40;;;11.80;99.90;;;;;;5065437;28;20056;-81
2023/08/27 00:11:18;;;;;;;7.30;1.48;;;11.70;99.90;;;;;;5042609;28;20152;-82
2023/08/27 00:13:44;;;;;;;6.32;1.58;;;11.70;99.90;;;;;;5045354;28;20072;-83
2023/08/27 00:16:11;;;;;;;2.90;1.20;;;11.70;99.90;;;;;;5058420;28;20079;-84
2023/08/27 00:18:40;;;;;;;4.97;1.35;;;11.60;99.90;;;;;;5044532;28;20048;-83
2023/08/27 00:21:07;;;;;;;3.83;1.10;;;11.60;99.90;;;;;;5057445;28;20428;-80
2023/08/27 00:23:33;;;;;;;5.45;1.27;;;11.60;99.90;;;;;;5059098;28;20432;-80
2023/08/27 00:26:00;;;;;;;2.45;1.13;;;11.50;99.90;;;;;;5057634;28;20069;-82
2023/08/27 00:28:28;;;;;;;2.67;1.20;;;11.40;99.90;;;;;;5037449;28;20056;-80
2023/08/27 00:30:55;;;;;;;3.83;1.40;;;11.40;99.90;;;;;;5047003;28;20044;-82
2023/08/27 00:33:22;;;;;;;3.15;1.20;;;11.40;99.90;;;;;;5025372;28;20041;-82
2023/08/27 00:35:53;;;;;;;4.57;1.58;;;11.40;99.90;;;;;;5038002;28;20033;-81
2023/08/27 00:38:20;;;;;;;4.35;1.35;;;11.40;99.90;;;;;;5043581;28;20049;-84
2023/08/27 00:40:47;;;;;;;4.38;1.23;;;11.40;99.90;;;;;;5056842;28;20045;-80
2023/08/27 00:43:14;;;;;;;5.53;1.40;;;11.40;99.90;;;;;;5038783;28;20349;-81
2023/08/27 00:45:41;;;;;;;4.53;1.30;;;11.30;99.90;;;;;;5051923;28;20133;-81
2023/08/27 00:48:10;;;;;;;3.80;1.40;;;11.30;99.90;;;;;;5047715;28;20040;-82
2023/08/27 00:50:37;;;;;;;4.50;1.38;;;11.30;99.90;;;;;;5082665;28;20533;-83
2023/08/27 00:53:04;;;;;;;4.35;1.30;;;11.30;99.90;;;;;;5092896;28;20036;-83
2023/08/27 00:55:30;;;;;;;4.22;1.50;;;11.30;99.90;;;;;;5082693;28;20471;-82
2023/08/27 00:57:57;;;;;;;5.47;1.50;;;11.30;99.90;;;;;;5074546;28;20068;-81
2023/08/27 01:00:24;;;;;;;3.42;1.30;;;11.30;99.90;;;;;;5083230;28;20148;-83
2023/08/27 01:02:51;;;;;;;6.15;1.60;;;11.40;99.90;;;;;;5095649;28;20126;-82
2023/08/27 01:05:20;;;;;;;4.32;1.60;;;11.40;99.90;;;;;;5095320;28;20035;-84
2023/08/27 01:07:47;;;;;;;5.32;1.40;;;11.40;99.90;;;;;;5093485;28;20139;-81
2023/08/27 01:10:14;;;;;;;4.00;1.50;;;11.40;99.90;;;;;;5077256;28;20040;-83
2023/08/27 01:12:41;;;;;;;4.85;1.73;;;11.40;99.90;;;;;;5081102;28;20379;-83
2023/08/27 01:15:08;;;;;;;5.22;1.80;;;11.50;99.90;;;;;;5092791;28;20047;-80
2023/08/27 01:20:20;;;;;;;5.88;1.60;;;11.60;99.90;;;;;;5072959;28;20529;-82
2023/08/27 01:22:47;;;;;;;12.45;1.98;;;11.60;99.90;;;;;;5069651;28;20367;-81
2023/08/27 01:25:16;;;;;;;4.57;1.58;;;11.60;99.90;;;;;;5081248;28;20466;-82
2023/08/27 01:27:43;;;;;;;5.97;1.67;;;11.70;99.90;;;;;;5082483;28;20098;-84
2023/08/27 01:30:10;;;;;;;5.68;1.50;;;11.70;99.90;;;;;;5074097;28;20074;-81
2023/08/27 01:32:37;;;;;;;4.43;1.60;;;11.70;99.90;;;;;;5084813;28;20044;-84
2023/08/27 01:35:04;;;;;;;4.63;1.63;;;11.70;99.90;;;;;;5069248;28;20072;-84
2023/08/27 01:37:30;;;;;;;6.10;1.90;;;11.70;99.90;;;;;;5094117;28;20040;-83
2023/08/27 01:39:58;;;;;;;5.30;1.75;;;11.80;99.90;;;;;;5079401;28;20094;-84
2023/08/27 01:42:25;;;;;;;5.25;1.63;;;11.80;99.90;;;;;;5094159;28;20032;-81
2023/08/27 01:44:52;;;;;;;6.45;1.80;;;11.80;99.90;;;;;;5082891;28;20486;-83
2023/08/27 01:47:19;;;;;;;4.50;1.70;;;11.90;99.90;;;;;;5076932;28;20078;-83
2023/08/27 01:49:45;;;;;;;6.63;1.60;;;11.90;99.90;;;;;;5083392;28;20348;-82
2023/08/27 01:52:12;;;;;;;4.82;1.70;;;12.00;99.90;;;;;;5074537;28;20094;-82
2023/08/27 01:54:39;;;;;;;6.10;1.80;;;12.00;99.90;;;;;;5087211;28;20041;-82
2023/08/27 01:57:08;;;;;;;6.72;2.30;;;12.00;99.90;;;;;;5073494;28;20061;-83
2023/08/27 01:59:35;;;;;;;8.60;1.92;;;12.10;99.90;;;;;;5087492;28;20048;-83
2023/08/27 02:02:02;;;;;;;9.82;1.80;;;12.10;99.90;;;;;;5086970;28;20085;-80
2023/08/27 02:04:29;;;;;;;6.70;2.17;;;12.10;99.90;;;;;;5097706;28;20135;-83
2023/08/27 02:06:57;;;;;;;5.38;1.92;;;12.20;99.90;;;;;;5096998;28;20043;-80
2023/08/27 02:09:24;;;;;;;5.78;2.33;;;12.20;99.90;;;;;;5066722;28;20041;-82
2023/08/27 02:11:51;;;;;;;6.00;2.55;;;12.30;99.90;;;;;;5081603;28;20486;-82
2023/08/27 02:14:17;;;;;;;5.60;2.00;;;12.40;99.90;;;;;;5096797;28;20463;-82
2023/08/27 02:16:45;;;;;;;6.78;2.03;;;12.40;99.90;;;;;;5097465;28;20055;-82
2023/08/27 02:19:12;;;;;;;6.50;2.50;;;12.40;99.90;;;;;;5097504;28;20058;-82
2023/08/27 02:21:39;;;;;;;7.07;2.40;;;12.50;99.90;;;;;;5093895;28;20068;-80
2023/08/27 02:24:06;;;;;;;6.50;2.38;;;12.50;99.90;;;;;;5077209;28;20544;-83
2023/08/27 02:26:33;;;;;;;5.78;2.10;;;12.50;99.90;;;;;;5091669;28;20039;-83
2023/08/27 02:29:01;;;;;;;7.85;1.83;;;12.50;99.90;;;;;;5089832;28;20048;-84
2023/08/27 02:31:28;;;;;;;5.65;2.28;;;12.50;99.90;;;;;;5078423;28;20094;-84
2023/08/27 02:33:54;;;;;;;6.57;1.90;;;12.50;99.90;;;;;;5090906;28;20383;-83
2023/08/27 02:36:21;;;;;;;7.05;2.33;;;12.50;99.90;;;;;;5090013;28;20096;-83
2023/08/27 02:41:18;;;;;;;6.63;2.25;;;12.50;99.90;;;;;;5087823;28;20405;-84
2023/08/27 02:43:45;;;;;;;6.07;2.00;;;12.50;99.90;;;;;;5096044;28;20417;-83
2023/08/27 02:46:11;;;;;;;6.95;2.35;;;12.50;99.90;;;;;;5088292;28;20056;-83
2023/08/27 02:48:38;;;;;;;5.35;2.13;;;12.50;99.90;;;;;;5092095;28;20075;-82
2023/08/27 02:51:05;;;;;;;9.32;2.40;;;12.50;99.90;;;;;;5080455;28;20486;-82
2023/08/27 02:53:32;;;;;;;5.57;2.20;;;12.40;99.90;;;;;;5068561;28;20041;-80
2023/08/27 02:55:58;;;;;;;6.45;2.22;;;12.40;99.90;;;;;;5095544;28;20467;-81
2023/08/27 02:58:25;;;;;;;6.80;1.90;;;12.30;99.90;;;;;;5084151;28;20055;-82
2023/08/27 03:00:52;;;;;;;7.63;2.28;;;12.30;99.90;;;;;;5081768;28;20040;-81
2023/08/27 03:03:19;;;;;;;6.70;2.17;;;12.30;99.90;;;;;;5090622;28;20337;-81
2023/08/27 03:05:46;;;;;;;5.63;1.90;;;12.20;99.90;;;;;;5076386;28;20041;-83
2023/08/27 03:08:13;;;;;;;3.78;1.67;;;12.10;99.90;;;;;;5077595;28;20067;-81
2023/08/27 03:10:40;;;;;;;6.53;2.25;;;12.10;99.90;;;;;;5096822;28;20051;-81
2023/08/27 03:13:07;;;;;;;4.32;1.80;;;12.10;99.90;;;;;;5082735;28;20043;-82
2023/08/27 03:15:33;;;;;;;4.90;1.83;;;12.10;99.90;;;;;;5096242;28;20105;-83
2023/08/27 03:20:47;;;;;;;5.28;1.92;;;12.00;99.90;;;;;;5085822;28;20048;-82
2023/08/27 03:23:13;;;;;;;6.20;2.00;;;12.00;99.90;;;;;;5091299;28;20120;-83
2023/08/27 03:25:40;;;;;;;7.10;2.13;;;12.00;99.90;;;;;;5084146;28;20047;-82
2023/08/27 03:28:07;;;;;;;9.77;2.30;;;11.90;99.90;;;;;;5064557;28;20443;-82
2023/08/27 03:30:33;;;;;;;6.10;1.92;;;11.90;99.90;;;;;;5065471;28;20123;-82
2023/08/27 03:33:00;;;;;;;7.35;2.28;;;11.90;99.90;;;;;;5096449;28;20146;-82
2023/08/27 03:35:29;;;;;;;8.27;2.25;;;11.90;99.90;;;;;;5079709;28;20047;-83
2023/08/27 03:37:57;;;;;;;6.10;1.95;;;11.80;99.90;;;;;;5085247;28;20044;-81
2023/08/27 03:40:24;;;;;;;4.97;1.80;;;11.80;99.90;;;;;;5088961;28;20359;-83
2023/08/27 03:42:52;;;;;;;8.07;2.00;;;11.80;99.90;;;;;;5085346;28;20040;-83
2023/08/27 03:45:20;;;;;;;6.68;2.60;;;11.70;99.90;;;;;;5077644;28;20370;-82
2023/08/27 03:47:50;;;;;;;4.15;1.60;;;11.70;99.90;;;;;;5083110;28;20048;-81
2023/08/27 03:50:17;;;;;;;5.93;1.80;;;11.70;99.90;;;;;;5095323;28;20067;-82
2023/08/27 03:52:45;;;;;;;4.28;1.70;;;11.70;99.90;;;;;;5095624;28;20048;-83
2023/08/27 03:55:12;;;;;;;5.25;1.90;;;11.60;99.90;;;;;;5078068;28;20059;-83
2023/08/27 03:57:39;;;;;;;6.80;1.83;;;11.60;99.90;;;;;;5095850;28;20051;-83
2023/08/27 04:00:06;;;;;;;5.30;1.83;;;11.60;99.90;;;;;;5095993;28;20119;-79
2023/08/27 04:02:41;;;;;;;3.95;1.55;;;11.50;99.90;;;;;;5095950;28;20048;-81
2023/08/27 04:05:08;;;;;;;5.25;1.77;;;11.50;99.90;;;;;;5076353;28;20135;-81
2023/08/27 04:07:37;;;;;;;8.48;2.05;;;11.50;99.90;;;;;;5067508;28;20344;-81
2023/08/27 04:10:04;;;;;;;5.70;1.70;;;11.50;99.90;;;;;;5094703;28;20036;-83
2023/08/27 04:12:31;;;;;;;7.22;1.90;;;11.50;99.90;;;;;;5083579;28;20045;-82
2023/08/27 04:14:57;;;;;;;4.53;1.70;;;11.50;99.90;;;;;;5088681;28;20040;-84
2023/08/27 04:17:25;;;;;;;5.55;1.63;;;11.50;99.90;;;;;;5064827;28;20040;-81
2023/08/27 04:19:52;;;;;;;7.20;1.80;;;11.50;99.90;;;;;;5074264;28;20048;-85
2023/08/27 04:22:19;;;;;;;9.48;1.80;;;11.50;99.90;;;;;;5057742;28;20139;-84
2023/08/27 04:24:45;;;;;;;5.00;1.75;;;11.40;99.90;;;;;;5075532;28;20040;-81
2023/08/27 04:27:12;;;;;;;4.95;1.83;;;11.40;99.90;;;;;;5070811;28;20052;-81
2023/08/27 04:29:39;;;;;;;6.18;1.88;;;11.40;99.90;;;;;;5088474;28;20036;-83
2023/08/27 04:32:07;;;;;;;6.15;1.80;;;11.30;99.90;;;;;;5094934;28;20097;-81
2023/08/27 04:34:34;;;;;;;7.32;2.13;;;11.40;99.90;;;;;;5093879;28;20539;-81
2023/08/27 04:37:03;;;;;;;4.80;1.80;;;11.40;99.90;;;;;;5091665;28;20102;-82
2023/08/27 04:39:30;;;;;;;4.53;1.55;;;11.30;99.90;;;;;;5073671;28;20426;-81
2023/08/27 04:41:57;;;;;;;5.50;1.80;;;11.20;99.90;;;;;;5076408;28;20076;-84
2023/08/27 04:44:25;;;;;;;6.60;1.90;;;11.20;99.90;;;;;;5087102;28;20106;-83
2023/08/27 04:46:54;;;;;;;4.78;1.73;;;11.20;99.90;;;;;;5089089;28;20374;-82
2023/08/27 04:49:24;;;;;;;4.45;1.77;;;11.20;99.90;;;;;;5074720;28;20060;-84
2023/08/27 04:51:51;;;;;;;6.22;1.85;;;11.20;99.90;;;;;;5078221;28;20068;-81
2023/08/27 04:54:17;;;;;;;4.70;1.92;;;11.20;99.90;;;;;;5072687;28;20374;-81
2023/08/27 04:56:46;;;;;;;7.47;2.20;;;11.20;99.90;;;;;;5086661;28;20072;-83
2023/08/27 04:59:15;;;;;;;4.80;1.70;;;11.20;99.90;;;;;;5089857;28;20036;-83
2023/08/27 05:01:41;;;;;;;4.30;1.65;;;11.20;99.90;;;;;;5087442;28;20411;-83
2023/08/27 05:04:08;;;;;;;10.48;2.00;;;11.20;99.90;;;;;;5074326;28;20547;-82
2023/08/27 05:06:35;;;;;;;5.82;1.67;;;11.10;99.90;;;;;;5072274;28;20044;-81
2023/08/27 05:09:01;;;;;;;4.80;1.83;;;11.20;99.90;;;;;;5084903;28;20056;-84
2023/08/27 05:11:28;;;;;;;5.78;1.98;;;11.20;99.90;;;;;;5076912;28;20428;-81
2023/08/27 05:13:56;;;;;;;4.03;1.67;;;11.20;99.90;;;;;;5082802;28;20117;-84
2023/08/27 05:16:23;;;;;;;4.50;1.67;;;11.20;99.90;;;;;;5077567;28;20394;-82
2023/08/27 05:18:52;;;;;;;5.40;2.00;;;11.20;99.90;;;;;;5094341;28;20040;-80
2023/08/27 05:21:19;;;;;;;8.20;2.00;;;11.20;99.90;;;;;;5093922;28;20135;-81
2023/08/27 05:23:46;;;;;;;5.75;2.22;;;11.20;99.90;;;;;;5094035;28;20535;-80
2023/08/27 05:26:13;;;;;;;4.93;1.67;;;11.20;99.90;;;;;;5093773;28;20139;-81
2023/08/27 05:28:42;;;;;;;4.55;1.70;;;11.20;99.90;;;;;;5094895;28;20386;-83
2023/08/27 05:31:09;;;;;;;7.90;1.83;;;11.20;99.90;;;;;;5082804;28;20063;-81
2023/08/27 05:33:36;;;;;;;5.47;1.92;;;11.20;99.90;;;;;;5087160;28;20498;-83
2023/08/27 05:36:04;;;;;;;4.45;1.67;;;11.20;99.90;;;;;;5074113;28;20048;-82
2023/08/27 05:38:32;;;;;;;8.32;2.10;;;11.30;99.90;;;;;;5073502;28;20094;-80
2023/08/27 05:40:58;;;;;;;3.97;1.58;;;11.30;99.90;;;;;;5080897;28;20104;-81
2023/08/27 05:43:26;;;;;;;5.68;2.00;;;11.30;99.90;;;;;;5093739;28;20356;-82
2023/08/27 05:45:55;;;;;;;5.22;1.67;;;11.30;99.90;;;;;;5079970;28;20518;-81
2023/08/27 05:48:22;;;;;;;6.50;1.83;;;11.40;99.90;;;;;;5080302;28;20083;-83
2023/08/27 05:50:50;;;;;;;4.75;1.90;;;11.40;99.90;;;;;;5088784;28;20052;-82
2023/08/27 05:53:17;;;;;;;10.32;1.80;;;11.40;99.90;;;;;;5092464;28;20077;-83
2023/08/27 05:55:44;;;;;;;4.78;1.77;;;11.50;99.90;;;;;;5093773;28;20040;-81
2023/08/27 05:58:11;;;;;;;4.10;1.60;;;11.50;99.90;;;;;;5057235;28;20052;-81
2023/08/27 06:00:38;;;;;;;5.60;1.77;;;11.50;99.90;;;;;;5072626;28;20045;-81
2023/08/27 06:03:05;;;;;;;4.50;1.70;;;11.60;99.90;;;;;;5079958;28;20193;-84
2023/08/27 06:05:34;;;;;;;5.95;2.15;;;11.70;99.90;;;;;;5093621;28;20043;-79
2023/08/27 06:08:02;;;;;;;4.47;1.60;;;11.70;99.90;;;;;;5076032;28;20470;-82
2023/08/27 06:10:29;;;;;;;5.80;1.70;;;11.80;99.90;;;;;;5092185;28;20050;-83
2023/08/27 06:12:58;;;;;;;7.00;2.13;;;11.90;99.90;;;;;;5070197;28;20044;-83
2023/08/27 06:15:27;;;;;;;6.47;1.83;;;11.80;99.90;;;;;;5073395;28;20036;-83
2023/08/27 06:18:00;;;;;;;6.70;1.80;;;12.00;99.90;;;;;;5057291;28;20093;-82
2023/08/27 06:20:28;;;;;;;6.30;1.80;;;12.00;99.90;;;;;;5079663;28;20051;-82
2023/08/27 06:22:57;;;;;;;5.03;1.67;;;12.10;99.90;;;;;;5093364;28;20489;-79
2023/08/27 06:25:24;;;;;;;5.10;1.80;;;12.20;99.90;;;;;;5073351;28;20250;-83
2023/08/27 06:27:53;;;;;;;6.13;1.73;;;12.20;99.90;;;;;;5085356;28;20082;-83
2023/08/27 06:30:20;;;;;;;6.55;1.90;;;12.30;99.90;;;;;;5074802;28;20126;-80
2023/08/27 06:32:47;;;;;;;6.60;1.80;;;12.40;99.90;;;;;;5073667;28;20052;-82
2023/08/27 06:35:14;;;;;;;6.07;1.60;;;12.60;99.90;;;;;;5073530;28;20052;-81
2023/08/27 06:37:41;;;;;;;4.82;1.80;;;12.70;99.90;;;;;;5073747;28;20465;-82
2023/08/27 06:40:07;;;;;;;4.43;1.60;;;12.70;99.90;;;;;;5087316;28;20044;-82
2023/08/27 06:42:35;;;;;;;6.20;1.80;;;12.70;99.90;;;;;;5093778;28;20063;-81
2023/08/27 06:45:04;;;;;;;4.68;1.75;;;12.80;99.90;;;;;;5093287;28;20040;-82
2023/08/27 06:47:32;;;;;;;3.97;1.50;;;12.90;99.90;;;;;;5093052;28;20040;-82
2023/08/27 06:49:59;;;;;;;6.60;1.63;;;12.90;99.90;;;;;;5085358;28;20068;-84
2023/08/27 06:52:25;;;;;;;3.95;1.50;;;13.00;99.90;;;;;;5029498;28;20068;-82
2023/08/27 06:54:53;;;;;;;4.20;1.65;;;13.00;99.90;;;;;;5058948;28;20445;-82
2023/08/27 07:00:12;;;;;;;6.00;1.50;;;13.20;99.90;;;;;;5046138;28;20041;-81
2023/08/27 07:02:38;;;;;;;4.95;1.80;;;13.20;99.90;;;;;;5045538;28;20447;-81
2023/08/27 07:05:08;;;;;;;4.13;1.58;;;13.30;99.90;;;;;;5023609;28;20033;-83
2023/08/27 07:07:37;;;;;;;6.40;1.67;;;13.30;99.90;;;;;;5052843;28;20041;-83
2023/08/27 07:10:04;;;;;;;7.45;1.90;;;13.30;99.90;;;;;;5045498;28;20046;-83
2023/08/27 07:12:32;;;;;;;6.15;1.50;;;13.40;99.90;;;;;;5059511;28;20044;-81
2023/08/27 07:15:00;;;;;;;4.40;1.77;;;13.50;99.90;;;;;;5054398;28;20033;-80
2023/08/27 07:17:28;;;;;;;4.78;1.63;;;13.60;99.90;;;;;;5057228;28;20064;-81
2023/08/27 07:19:55;;;;;;;5.93;2.03;;;13.50;99.90;;;;;;5053647;28;20566;-84
2023/08/27 07:22:22;;;;;;;5.32;1.83;;;13.60;99.90;;;;;;5044689;28;20033;-85
2023/08/27 07:24:49;;;;;;;5.13;1.70;;;13.60;99.90;;;;;;5059168;28;20071;-84
2023/08/27 07:27:17;;;;;;;10.18;1.88;;;13.70;99.90;;;;;;5055489;28;20047;-82
2023/08/27 07:29:43;;;;;;;5.97;1.80;;;13.80;99.90;;;;;;5047277;28;20080;-83
2023/08/27 07:32:10;;;;;;;6.68;1.90;;;13.90;99.90;;;;;;5059968;28;20463;-83
2023/08/27 07:34:37;;;;;;;5.68;1.52;;;13.90;99.90;;;;;;5072513;28;20055;-84
2023/08/27 07:37:06;;;;;;;7.20;1.98;;;14.00;99.90;;;;;;5059360;28;20045;-83
2023/08/27 07:39:32;;;;;;;4.38;1.67;;;14.20;99.90;;;;;;5075876;28;20036;-82
2023/08/27 07:41:59;;;;;;;10.60;1.90;;;14.40;99.90;;;;;;5056778;28;20120;-82
2023/08/27 07:44:26;;;;;;;7.85;1.88;;;14.50;99.90;;;;;;5047671;28;20390;-82
2023/08/27 07:46:53;;;;;;;8.13;2.08;;;14.50;99.90;;;;;;5044040;28;20041;-83
2023/08/27 07:49:29;;;;;;;4.63;1.70;;;14.50;99.90;;;;;;5060348;28;20056;-81
2023/08/27 07:51:56;;;;;;;8.27;1.70;;;14.60;99.90;;;;;;5090313;28;20074;-82
2023/08/27 07:54:23;;;;;;;6.53;1.90;;;14.70;99.90;;;;;;5092565;28;20051;-81
2023/08/27 07:56:50;;;;;;;4.95;1.77;;;15.00;99.90;;;;;;5081157;28;20099;-84
2023/08/27 07:59:17;;;;;;;5.82;1.70;;;15.20;99.90;;;;;;5081126;28;20045;-81
2023/08/27 08:01:44;;;;;;;4.25;1.67;;;15.30;99.90;;;;;;5060717;28;20135;-81
2023/08/27 08:04:14;;;;;;;5.40;1.80;;;15.20;99.90;;;;;;5059052;28;20041;-82
2023/08/27 08:06:42;;;;;;;5.53;1.70;;;15.30;99.90;;;;;;5087264;28;20090;-81
2023/08/27 08:09:08;;;;;;;5.30;1.80;;;15.40;99.90;;;;;;5094979;28;20044;-80
2023/08/27 08:11:35;;;;;;;5.50;1.60;;;15.60;99.90;;;;;;5082211;28;20036;-81
2023/08/27 08:14:02;;;;;;;4.88;1.63;;;15.70;99.90;;;;;;5095450;28;20044;-80
2023/08/27 08:16:29;;;;;;;4.45;1.70;;;15.70;99.90;;;;;;5096194;28;20481;-81
2023/08/27 08:18:55;;;;;;;4.50;1.58;;;15.80;99.90;;;;;;5086733;28;20135;-83
2023/08/27 08:21:22;;;;;;;4.75;1.42;;;16.00;99.90;;;;;;5075299;28;20040;-83
2023/08/27 08:23:49;;;;;;;4.38;1.42;;;15.80;99.90;;;;;;5076613;28;20032;-83
2023/08/27 08:26:15;;;;;;;5.50;1.50;;;15.70;99.90;;;;;;5087497;28;20126;-80
2023/08/27 08:28:43;;;;;;;4.10;1.38;;;15.80;99.90;;;;;;5090897;28;20451;-83
2023/08/27 08:31:10;;;;;;;4.13;1.42;;;16.00;99.90;;;;;;5087409;28;20109;-83
2023/08/27 08:33:37;;;;;;;5.40;1.60;;;16.10;99.90;;;;;;5079824;28;20158;-82
2023/08/27 08:36:04;;;;;;;5.70;1.40;;;16.30;99.90;;;;;;5068733;28;20136;-83
2023/08/27 08:38:34;;;;;;;4.05;1.33;;;16.40;99.90;;;;;;5074416;28;20040;-81
2023/08/27 08:41:00;;;;;;;4.93;1.42;;;16.40;99.90;;;;;;5074679;28;20078;-79
2023/08/27 08:43:27;;;;;;;6.25;1.48;;;16.40;99.90;;;;;;5074566;28;20045;-80
2023/08/27 08:45:54;;;;;;;5.82;1.67;;;16.60;99.90;;;;;;5081961;28;20058;-82
2023/08/27 08:48:22;;;;;;;5.60;1.40;;;16.80;99.90;;;;;;5082637;28;20383;-79
2023/08/27 08:50:49;;;;;;;6.80;1.70;;;16.80;99.90;;;;;;5057912;28;20554;-82
2023/08/27 08:53:15;;;;;;;4.22;1.60;;;16.90;99.90;;;;;;5044406;28;20100;-78
2023/08/27 08:55:43;;;;;;;5.10;1.65;;;16.90;99.90;;;;;;5062196;28;20081;-82
2023/08/27 08:58:10;;;;;;;5.13;1.67;;;17.00;99.90;;;;;;5069280;28;20552;-83
2023/08/27 09:00:37;;;;;;;4.07;1.40;;;16.90;99.90;;;;;;5036778;28;20043;-84
2023/08/27 09:03:03;;;;;;;4.82;1.67;;;17.20;99.90;;;;;;5072974;28;20430;-83
2023/08/27 09:05:30;;;;;;;7.97;1.88;;;17.30;99.90;;;;;;5065152;28;20052;-82
2023/08/27 09:07:58;;;;;;;6.05;1.58;;;17.40;99.90;;;;;;5036681;28;20051;-84
2023/08/27 09:10:25;;;;;;;5.07;1.48;;;17.40;99.90;;;;;;5062809;28;20036;-84
2023/08/27 09:12:52;;;;;;;6.90;1.40;;;17.60;99.90;;;;;;5056749;28;20383;-81
2023/08/27 09:15:18;;;;;;;9.82;1.70;;;17.60;99.90;;;;;;5068182;28;20051;-82
2023/08/27 09:20:32;;;;;;;6.90;1.58;;;17.60;99.90;;;;;;5054087;28;20044;-84
2023/08/27 09:22:58;;;;;;;5.25;1.60;;;17.70;99.90;;;;;;5068509;28;20054;-85
2023/08/27 09:25:25;;;;;;;5.63;1.40;;;18.00;99.90;;;;;;5061009;28;20575;-85
2023/08/27 09:27:52;;;;;;;5.18;1.10;;;17.80;99.90;;;;;;5044555;28;20045;-84
2023/08/27 09:30:19;;;;;;;4.88;1.52;;;17.70;99.90;;;;;;5054945;28;20037;-83
2023/08/27 09:32:45;;;;;;;5.70;1.65;;;18.00;99.90;;;;;;5047559;28;20147;-83
2023/08/27 09:35:12;;;;;;;5.32;1.60;;;18.20;99.90;;;;;;5042075;28;20037;-84
2023/08/27 09:37:39;;;;;;;9.00;1.70;;;18.20;99.90;;;;;;5049052;28;20140;-81
2023/08/27 09:40:06;;;;;;;8.40;1.92;;;18.20;99.90;;;;;;5054409;28;20371;-83
2023/08/27 09:42:33;;;;;;;6.03;1.75;;;18.40;99.90;;;;;;5067785;28;20069;-81
2023/08/27 09:45:00;;;;;;;4.13;1.40;;;18.50;99.90;;;;;;5067520;28;20067;-81
2023/08/27 09:47:27;;;;;;;5.95;1.50;;;18.50;99.90;;;;;;5073775;28;20032;-82
2023/08/27 09:49:55;;;;;;;3.42;1.35;;;18.70;99.90;;;;;;5062777;28;20053;-82
2023/08/27 09:52:21;;;;;;;4.28;1.42;;;18.80;99.90;;;;;;5072189;28;20044;-82
2023/08/27 09:54:48;;;;;;;3.67;1.30;;;19.10;99.90;;;;;;5073713;28;20090;-83
2023/08/27 09:57:15;;;;;;;6.22;1.85;;;19.30;99.90;;;;;;5074576;28;20040;-83
2023/08/27 09:59:41;;;;;;;3.67;1.40;;;19.50;99.90;;;;;;5042145;28;20051;-82
2023/08/27 10:02:08;;;;;;;3.70;1.30;;;19.20;99.90;;;;;;5057246;28;20114;-80
2023/08/27 10:04:35;;;;;;;3.63;1.33;;;19.20;99.90;;;;;;5042606;28;20045;-83
2023/08/27 10:07:04;;;;;;;5.28;1.40;;;19.40;99.90;;;;;;5047611;28;20056;-81
2023/08/27 10:09:30;;;;;;;6.68;1.30;;;19.50;99.90;;;;;;5051618;28;20044;-78
2023/08/27 10:11:57;;;;;;;4.25;1.20;;;19.50;99.90;;;;;;5074317;28;20477;-81
2023/08/27 10:14:24;;;;;;;7.03;1.52;;;19.80;99.90;;;;;;5043020;28;20072;-80
2023/08/27 10:16:50;;;;;;;2.83;1.33;;;19.90;99.90;;;;;;5073485;28;20055;-82
2023/08/27 10:19:17;;;;;;;5.18;1.60;;;20.20;99.90;;;;;;5062942;28;20119;-82
2023/08/27 10:21:44;;;;;;;5.30;1.42;;;20.30;99.90;;;;;;5055821;28;20064;-81
2023/08/27 10:24:11;;;;;;;5.00;1.40;;;20.20;99.90;;;;;;5078357;28;20121;-81
2023/08/27 10:26:37;;;;;;;4.30;1.35;;;20.20;99.90;;;;;;5045553;28;20427;-80
2023/08/27 10:29:04;;;;;;;6.82;1.35;;;20.10;99.90;;;;;;5070086;28;20128;-80
2023/08/27 10:31:31;;;;;;;6.50;1.40;;;19.90;99.90;;;;;;5054855;28;20044;-82
2023/08/27 10:33:58;;;;;;;4.22;1.30;;;19.60;99.90;;;;;;5063481;28;20055;-83
2023/08/27 10:36:24;;;;;;;4.97;1.20;;;19.70;99.90;;;;;;5078011;28;20051;-81
2023/08/27 10:38:51;;;;;;;5.13;1.40;;;19.90;99.90;;;;;;5052568;28;20106;-81
2023/08/27 10:41:19;;;;;;;5.45;1.52;;;20.00;99.90;;;;;;5059826;28;20075;-84
2023/08/27 10:43:46;;;;;;;4.63;1.25;;;20.20;99.90;;;;;;5047637;28;20061;-86
2023/08/27 10:46:12;;;;;;;4.70;1.20;;;20.30;99.90;;;;;;5065973;28;20119;-81
2023/08/27 10:48:39;;;;;;;4.28;1.30;;;20.90;99.90;;;;;;5059907;28;20115;-82
2023/08/27 10:51:06;;;;;;;6.22;1.20;;;21.30;99.90;;;;;;5074750;28;20056;-81
2023/08/27 10:53:33;;;;;;;3.80;1.20;;;21.10;99.90;;;;;;5058380;28;20049;-80
2023/08/27 10:55:59;;;;;;;3.28;1.20;;;21.00;99.90;;;;;;5057509;28;20037;-80
2023/08/27 10:58:26;;;;;;;5.35;1.30;;;20.50;99.90;;;;;;5054874;28;20047;-84
2023/08/27 11:00:53;;;;;;;4.45;1.48;;;20.50;99.90;;;;;;5077308;28;20520;-85
2023/08/27 11:03:20;;;;;;;4.38;1.30;;;21.00;99.90;;;;;;5053342;28;20036;-83
2023/08/27 11:05:47;;;;;;;5.03;1.35;;;21.80;99.90;;;;;;5056004;28;20383;-81
2023/08/27 11:08:18;;;;;;;3.97;1.27;;;21.80;99.90;;;;;;5042735;28;20049;-85
2023/08/27 11:10:45;;;;;;;2.97;1.02;;;21.10;99.90;;;;;;5034384;28;20088;-83
2023/08/27 11:13:13;;;;;;;5.18;1.20;;;21.30;99.90;;;;;;5084815;28;20037;-82
2023/08/27 11:15:39;;;;;;;3.60;1.00;;;22.10;99.90;;;;;;5076449;28;20044;-81
2023/08/27 11:18:07;;;;;;;3.33;1.10;;;22.90;99.90;;;;;;5065583;28;20050;-82
2023/08/27 11:20:34;;;;;;;4.38;1.20;;;23.10;99.90;;;;;;5063376;28;20049;-87
2023/08/27 11:23:01;;;;;;;4.15;1.23;;;23.10;99.90;;;;;;5071503;28;20075;-84
2023/08/27 11:25:28;;;;;;;4.30;1.45;;;23.20;99.90;;;;;;5046221;28;20086;-85
2023/08/27 11:28:00;;;;;;;7.05;1.30;;;23.40;99.90;;;;;;5029805;28;20041;-82
2023/08/27 11:30:28;;;;;;;3.60;1.20;;;24.30;99.90;;;;;;5051594;28;20464;-82
2023/08/27 11:32:55;;;;;;;8.30;1.20;;;24.00;99.90;;;;;;5038474;28;20056;-84
2023/08/27 11:35:22;;;;;;;5.70;1.48;;;23.80;99.90;;;;;;5046820;28;20032;-84
2023/08/27 11:37:50;;;;;;;5.90;1.40;;;23.40;99.90;;;;;;5077214;28;20540;-80
2023/08/27 11:40:16;;;;;;;3.83;1.30;;;23.70;99.90;;;;;;5070172;28;20075;-85
2023/08/27 11:42:43;;;;;;;2.95;1.10;;;23.60;99.90;;;;;;5022897;28;20122;-84
2023/08/27 11:45:10;;;;;;;4.22;1.30;;;23.00;99.90;;;;;;5040239;28;20041;-86
2023/08/27 11:47:38;;;;;;;2.95;1.10;;;23.30;99.90;;;;;;5082909;28;20472;-82
2023/08/27 11:50:04;;;;;;;4.05;1.27;;;23.60;99.90;;;;;;5074560;28;20463;-85
2023/08/27 11:52:31;;;;;;;5.72;1.10;;;23.70;99.90;;;;;;5076399;28;20388;-83
2023/08/27 11:54:58;;;;;;;4.03;1.20;;;24.20;99.90;;;;;;5083093;28;20455;-87
2023/08/27 12:00:12;;;;;;;4.68;1.20;;;23.70;99.90;;;;;;5075553;28;20052;-86
2023/08/27 12:02:39;;;;;;;3.58;1.13;;;23.30;99.90;;;;;;5089392;28;20040;-84
2023/08/27 12:05:06;;;;;;;5.10;1.13;;;23.10;99.90;;;;;;5077208;28;20076;-85
2023/08/27 12:07:34;;;;;;;3.95;1.00;;;22.90;99.90;;;;;;5075867;28;20044;-84
2023/08/27 12:10:11;;;;;;;3.47;1.20;;;22.50;99.90;;;;;;5090709;28;20040;-82
2023/08/27 12:12:38;;;;;;;3.63;1.20;;;22.60;99.90;;;;;;5089011;28;20036;-82
2023/08/27 12:15:05;;;;;;;5.78;1.33;;;22.80;99.90;;;;;;5081428;28;20044;-84
2023/08/27 12:17:34;;;;;;;4.88;1.38;;;22.70;99.90;;;;;;5096391;28;20123;-82
2023/08/27 12:20:02;;;;;;;6.03;1.38;;;22.50;99.90;;;;;;5094586;28;20064;-82
2023/08/27 12:22:29;;;;;;;5.05;1.42;;;22.40;99.90;;;;;;5086422;28;20071;-82
2023/08/27 12:24:56;;;;;;;3.75;1.20;;;22.20;99.90;;;;;;5091624;28;20078;-84
2023/08/27 12:27:23;;;;;;;5.10;1.30;;;22.00;99.90;;;;;;5086225;28;20094;-83
2023/08/27 12:29:50;;;;;;;2.90;1.13;;;21.80;99.90;;;;;;5089845;28;20124;-83
2023/08/27 12:32:17;;;;;;;4.53;1.13;;;21.80;99.90;;;;;;5075834;28;20076;-84
2023/08/27 12:34:43;;;;;;;4.85;1.10;;;21.60;99.90;;;;;;5074468;28;20063;-82
2023/08/27 12:37:10;;;;;;;2.50;1.00;;;21.40;99.90;;;;;;5077488;28;20474;-84
2023/08/27 12:39:37;;;;;;;4.15;1.27;;;21.20;99.90;;;;;;5095194;28;20067;-85
2023/08/27 12:42:04;;;;;;;4.57;1.27;;;20.90;99.90;;;;;;5095936;28;20055;-86
2023/08/27 12:44:30;;;;;;;5.55;1.50;;;20.80;99.90;;;;;;5085471;28;20119;-83
2023/08/27 12:46:59;;;;;;;6.35;1.50;;;20.60;99.90;;;;;;5088063;28;20043;-84
2023/08/27 12:49:26;;;;;;;2.78;1.23;;;20.40;99.90;;;;;;5069435;28;20140;-80
2023/08/27 12:51:52;;;;;;;6.78;1.45;;;20.20;99.90;;;;;;5070195;28;20044;-85
2023/08/27 12:54:20;;;;;;;6.90;1.58;;;20.30;99.90;;;;;;5055285;28;20055;-83
2023/08/27 12:56:47;;;;;;;5.18;1.20;;;20.60;99.90;;;;;;5063216;28;20051;-82
2023/08/27 12:59:13;;;;;;;3.55;1.23;;;20.80;99.90;;;;;;5042631;28;20063;-80
2023/08/27 13:01:40;;;;;;;4.90;1.30;;;20.90;99.90;;;;;;5050432;28;20071;-84